sensor_id;sensor_type;location;lat;lon;timestamp;pressure;altitude;pressure_sealevel;temperature;humidity
64095;BME280;50353;51.420;5.682;2023-04-25T00:00:18;100811.59;;;8.23;80.89
64095;BME280;50353;51.420;5.682;2023-04-25T00:02:44;100810.66;;;8.24;80.70
64095;BME280;50353;51.420;5.682;2023-04-25T00:05:09;100800.59;;;8.32;80.31
64095;BME280;50353;51.420;5.682;2023-04-25T00:07:34;100802.28;;;8.33;79.92
64095;BME280;50353;51.420;5.682;2023-04-25T00:10:00;100809.81;;;8.06;81.43
64095;BME280;50353;51.420;5.682;2023-04-25T00:12:25;100807.03;;;8.26;80.88
64095;BME280;50353;51.420;5.682;2023-04-25T00:14:53;100805.38;;;8.24;80.76
64095;BME280;50353;51.420;5.682;2023-04-25T00:17:22;100807.31;;;8.03;82.18
64095;BME280;50353;51.420;5.682;2023-04-25T00:19:49;100809.88;;;8.22;81.39
64095;BME280;50353;51.420;5.682;2023-04-25T00:22:14;100816.38;;;8.15;81.94
64095;BME280;50353;51.420;5.682;2023-04-25T00:24:40;100820.13;;;8.45;79.79
64095;BME280;50353;51.420;5.682;2023-04-25T00:27:06;100822.94;;;8.41;80.62
64095;BME280;50353;51.420;5.682;2023-04-25T00:29:31;100822.03;;;8.42;80.56
64095;BME280;50353;51.420;5.682;2023-04-25T00:31:56;100821.88;;;8.45;80.30
64095;BME280;50353;51.420;5.682;2023-04-25T00:34:21;100812.31;;;8.42;80.92
64095;BME280;50353;51.420;5.682;2023-04-25T00:36:47;100817.16;;;8.52;80.55
64095;BME280;50353;51.420;5.682;2023-04-25T00:39:12;100817.63;;;8.25;81.70
64095;BME280;50353;51.420;5.682;2023-04-25T00:41:38;100814.44;;;8.53;79.81
64095;BME280;50353;51.420;5.682;2023-04-25T00:44:04;100817.16;;;8.52;80.25
64095;BME280;50353;51.420;5.682;2023-04-25T00:46:32;100815.84;;;8.08;81.36
64095;BME280;50353;51.420;5.682;2023-04-25T00:48:57;100815.22;;;8.38;80.88
64095;BME280;50353;51.420;5.682;2023-04-25T00:51:30;100806.13;;;8.43;80.69
64095;BME280;50353;51.420;5.682;2023-04-25T00:53:56;100813.28;;;8.24;81.30
64095;BME280;50353;51.420;5.682;2023-04-25T00:56:21;100811.28;;;8.29;81.45
64095;BME280;50353;51.420;5.682;2023-04-25T00:58:47;100813.91;;;8.11;82.17
64095;BME280;50353;51.420;5.682;2023-04-25T01:01:13;100815.38;;;8.00;83.00
64095;BME280;50353;51.420;5.682;2023-04-25T01:03:39;100811.75;;;8.02;82.66
64095;BME280;50353;51.420;5.682;2023-04-25T01:06:11;100822.50;;;7.98;82.29
64095;BME280;50353;51.420;5.682;2023-04-25T01:08:37;100818.53;;;7.89;82.45
64095;BME280;50353;51.420;5.682;2023-04-25T01:11:03;100819.72;;;8.01;82.84
64095;BME280;50353;51.420;5.682;2023-04-25T01:13:29;100825.94;;;7.81;83.24
64095;BME280;50353;51.420;5.682;2023-04-25T01:15:55;100817.31;;;7.78;83.27
64095;BME280;50353;51.420;5.682;2023-04-25T01:18:20;100818.53;;;7.89;83.05
64095;BME280;50353;51.420;5.682;2023-04-25T01:20:46;100814.72;;;7.77;83.15
64095;BME280;50353;51.420;5.682;2023-04-25T01:23:12;100820.88;;;7.95;82.84
64095;BME280;50353;51.420;5.682;2023-04-25T01:25:39;100816.84;;;7.51;83.94
64095;BME280;50353;51.420;5.682;2023-04-25T01:28:04;100814.34;;;7.48;83.91
64095;BME280;50353;51.420;5.682;2023-04-25T01:30:30;100813.78;;;7.41;84.37
64095;BME280;50353;51.420;5.682;2023-04-25T01:32:56;100817.63;;;7.34;84.37
64095;BME280;50353;51.420;5.682;2023-04-25T01:35:22;100819.34;;;7.35;84.54
64095;BME280;50353;51.420;5.682;2023-04-25T01:37:49;100825.50;;;7.53;83.97
64095;BME280;50353;51.420;5.682;2023-04-25T01:40:15;100822.91;;;7.34;84.25
64095;BME280;50353;51.420;5.682;2023-04-25T01:42:42;100817.06;;;7.08;84.99
64095;BME280;50353;51.420;5.682;2023-04-25T01:45:09;100819.50;;;7.13;84.87
64095;BME280;50353;51.420;5.682;2023-04-25T01:47:36;100820.41;;;7.31;83.30
64095;BME280;50353;51.420;5.682;2023-04-25T01:50:05;100830.13;;;7.29;83.34
64095;BME280;50353;51.420;5.682;2023-04-25T01:52:31;100827.16;;;6.99;84.02
64095;BME280;50353;51.420;5.682;2023-04-25T01:54:57;100826.38;;;7.35;83.97
64095;BME280;50353;51.420;5.682;2023-04-25T01:57:24;100838.81;;;7.12;83.55
64095;BME280;50353;51.420;5.682;2023-04-25T01:59:49;100838.53;;;7.18;82.51
64095;BME280;50353;51.420;5.682;2023-04-25T02:02:15;100848.16;;;6.80;83.90
64095;BME280;50353;51.420;5.682;2023-04-25T02:04:40;100843.34;;;6.89;84.96
64095;BME280;50353;51.420;5.682;2023-04-25T02:07:05;100840.63;;;6.91;85.15
64095;BME280;50353;51.420;5.682;2023-04-25T02:09:31;100843.88;;;6.77;86.15
64095;BME280;50353;51.420;5.682;2023-04-25T02:11:57;100841.66;;;7.07;85.79
64095;BME280;50353;51.420;5.682;2023-04-25T02:14:23;100839.13;;;6.85;86.13
64095;BME280;50353;51.420;5.682;2023-04-25T02:16:48;100844.81;;;6.95;86.26
64095;BME280;50353;51.420;5.682;2023-04-25T02:19:14;100842.28;;;6.93;86.78
64095;BME280;50353;51.420;5.682;2023-04-25T02:21:39;100845.84;;;6.72;88.51
64095;BME280;50353;51.420;5.682;2023-04-25T02:24:05;100844.34;;;7.06;87.29
64095;BME280;50353;51.420;5.682;2023-04-25T02:26:30;100839.81;;;7.09;86.69
64095;BME280;50353;51.420;5.682;2023-04-25T02:28:56;100846.31;;;7.01;86.76
64095;BME280;50353;51.420;5.682;2023-04-25T02:31:22;100846.94;;;6.87;87.74
64095;BME280;50353;51.420;5.682;2023-04-25T02:33:48;100843.44;;;6.67;88.23
64095;BME280;50353;51.420;5.682;2023-04-25T02:36:13;100846.19;;;6.85;87.45
64095;BME280;50353;51.420;5.682;2023-04-25T02:38:38;100853.88;;;6.69;88.28
64095;BME280;50353;51.420;5.682;2023-04-25T02:41:04;100847.56;;;6.73;88.26
64095;BME280;50353;51.420;5.682;2023-04-25T02:43:29;100860.78;;;6.51;89.62
64095;BME280;50353;51.420;5.682;2023-04-25T02:45:54;100857.75;;;6.81;89.16
64095;BME280;50353;51.420;5.682;2023-04-25T02:48:20;100855.41;;;6.93;87.56
64095;BME280;50353;51.420;5.682;2023-04-25T02:50:45;100848.81;;;6.85;87.41
64095;BME280;50353;51.420;5.682;2023-04-25T02:53:11;100859.34;;;6.43;89.56
64095;BME280;50353;51.420;5.682;2023-04-25T02:55:36;100857.56;;;6.65;88.75
64095;BME280;50353;51.420;5.682;2023-04-25T02:58:01;100852.91;;;6.71;88.65
64095;BME280;50353;51.420;5.682;2023-04-25T03:00:27;100840.72;;;7.08;86.62
64095;BME280;50353;51.420;5.682;2023-04-25T03:02:52;100848.34;;;6.96;86.12
64095;BME280;50353;51.420;5.682;2023-04-25T03:05:17;100853.66;;;6.73;86.62
64095;BME280;50353;51.420;5.682;2023-04-25T03:07:43;100853.50;;;6.57;87.23
64095;BME280;50353;51.420;5.682;2023-04-25T03:10:10;100851.47;;;6.43;88.23
64095;BME280;50353;51.420;5.682;2023-04-25T03:12:35;100853.06;;;6.48;88.72
64095;BME280;50353;51.420;5.682;2023-04-25T03:15:01;100863.13;;;6.57;87.38
64095;BME280;50353;51.420;5.682;2023-04-25T03:17:26;100861.78;;;6.48;87.34
64095;BME280;50353;51.420;5.682;2023-04-25T03:19:51;100856.44;;;6.50;88.44
64095;BME280;50353;51.420;5.682;2023-04-25T03:22:17;100861.03;;;6.24;89.40
64095;BME280;50353;51.420;5.682;2023-04-25T03:24:42;100864.19;;;6.32;89.90
64095;BME280;50353;51.420;5.682;2023-04-25T03:27:08;100865.59;;;6.19;89.43
64095;BME280;50353;51.420;5.682;2023-04-25T03:29:34;100869.78;;;6.45;88.78
64095;BME280;50353;51.420;5.682;2023-04-25T03:31:59;100861.41;;;6.35;89.30
64095;BME280;50353;51.420;5.682;2023-04-25T03:34:24;100857.34;;;6.69;88.56
64095;BME280;50353;51.420;5.682;2023-04-25T03:36:51;100872.59;;;6.40;88.46
64095;BME280;50353;51.420;5.682;2023-04-25T03:39:16;100868.66;;;6.51;88.64
64095;BME280;50353;51.420;5.682;2023-04-25T03:41:41;100869.72;;;6.67;88.17
64095;BME280;50353;51.420;5.682;2023-04-25T03:44:06;100867.00;;;6.69;87.57
64095;BME280;50353;51.420;5.682;2023-04-25T03:46:32;100869.91;;;6.83;86.57
64095;BME280;50353;51.420;5.682;2023-04-25T03:48:57;100872.72;;;6.79;86.45
64095;BME280;50353;51.420;5.682;2023-04-25T03:51:22;100872.84;;;6.75;87.40
64095;BME280;50353;51.420;5.682;2023-04-25T03:53:47;100879.38;;;6.67;88.23
64095;BME280;50353;51.420;5.682;2023-04-25T03:56:13;100875.94;;;6.65;88.35
64095;BME280;50353;51.420;5.682;2023-04-25T03:58:38;100875.94;;;6.65;88.38
64095;BME280;50353;51.420;5.682;2023-04-25T04:01:03;100879.84;;;6.56;88.57
64095;BME280;50353;51.420;5.682;2023-04-25T04:03:33;100880.34;;;6.64;87.86
64095;BME280;50353;51.420;5.682;2023-04-25T04:05:59;100874.56;;;6.76;87.75
64095;BME280;50353;51.420;5.682;2023-04-25T04:08:24;100878.44;;;6.68;87.19
64095;BME280;50353;51.420;5.682;2023-04-25T04:10:49;100871.81;;;6.59;88.35
64095;BME280;50353;51.420;5.682;2023-04-25T04:13:15;100877.91;;;6.80;88.05
64095;BME280;50353;51.420;5.682;2023-04-25T04:15:40;100873.50;;;6.81;87.64
64095;BME280;50353;51.420;5.682;2023-04-25T04:18:05;100883.22;;;6.79;87.96
64095;BME280;50353;51.420;5.682;2023-04-25T04:20:31;100887.19;;;6.68;88.07
64095;BME280;50353;51.420;5.682;2023-04-25T04:22:56;100889.81;;;6.68;88.15
64095;BME280;50353;51.420;5.682;2023-04-25T04:25:22;100896.34;;;6.79;88.08
64095;BME280;50353;51.420;5.682;2023-04-25T04:27:47;100893.22;;;6.70;88.45
64095;BME280;50353;51.420;5.682;2023-04-25T04:30:12;100898.13;;;6.78;87.77
64095;BME280;50353;51.420;5.682;2023-04-25T04:32:37;100894.53;;;6.60;88.56
64095;BME280;50353;51.420;5.682;2023-04-25T04:35:04;100895.00;;;6.70;88.50
64095;BME280;50353;51.420;5.682;2023-04-25T04:37:29;100900.63;;;6.60;88.30
64095;BME280;50353;51.420;5.682;2023-04-25T04:39:55;100901.63;;;6.58;88.71
64095;BME280;50353;51.420;5.682;2023-04-25T04:42:21;100905.16;;;6.77;87.73
64095;BME280;50353;51.420;5.682;2023-04-25T04:44:46;100907.00;;;6.75;88.15
64095;BME280;50353;51.420;5.682;2023-04-25T04:47:11;100909.81;;;6.50;89.11
64095;BME280;50353;51.420;5.682;2023-04-25T04:49:38;100905.75;;;7.05;86.96
64095;BME280;50353;51.420;5.682;2023-04-25T04:52:04;100916.06;;;6.89;87.41
64095;BME280;50353;51.420;5.682;2023-04-25T04:54:29;100912.25;;;6.96;86.83
64095;BME280;50353;51.420;5.682;2023-04-25T04:56:55;100915.38;;;7.04;86.77
64095;BME280;50353;51.420;5.682;2023-04-25T04:59:20;100917.06;;;7.26;85.51
64095;BME280;50353;51.420;5.682;2023-04-25T05:01:46;100914.56;;;7.23;85.81
64095;BME280;50353;51.420;5.682;2023-04-25T05:04:12;100928.13;;;7.14;85.26
64095;BME280;50353;51.420;5.682;2023-04-25T05:06:37;100936.22;;;7.09;85.96
64095;BME280;50353;51.420;5.682;2023-04-25T05:09:02;100941.16;;;6.96;86.46
64095;BME280;50353;51.420;5.682;2023-04-25T05:11:28;100941.28;;;6.93;86.86
64095;BME280;50353;51.420;5.682;2023-04-25T05:13:54;100941.38;;;7.31;85.31
64095;BME280;50353;51.420;5.682;2023-04-25T05:16:20;100945.72;;;7.11;85.73
64095;BME280;50353;51.420;5.682;2023-04-25T05:18:46;100948.59;;;7.26;85.46
64095;BME280;50353;51.420;5.682;2023-04-25T05:21:11;100951.25;;;7.26;85.71
64095;BME280;50353;51.420;5.682;2023-04-25T05:23:36;100950.84;;;7.35;85.70
64095;BME280;50353;51.420;5.682;2023-04-25T05:26:02;100955.63;;;7.06;85.64
64095;BME280;50353;51.420;5.682;2023-04-25T05:28:27;100954.31;;;7.36;84.67
64095;BME280;50353;51.420;5.682;2023-04-25T05:30:52;100961.94;;;7.61;82.34
64095;BME280;50353;51.420;5.682;2023-04-25T05:33:18;100967.81;;;7.28;82.77
64095;BME280;50353;51.420;5.682;2023-04-25T05:35:43;100970.41;;;7.49;83.31
64095;BME280;50353;51.420;5.682;2023-04-25T05:38:09;100968.13;;;7.60;83.36
64095;BME280;50353;51.420;5.682;2023-04-25T05:40:34;100977.09;;;7.75;83.03
64095;BME280;50353;51.420;5.682;2023-04-25T05:42:59;100978.34;;;7.85;81.15
64095;BME280;50353;51.420;5.682;2023-04-25T05:45:25;100968.22;;;7.77;81.06
64095;BME280;50353;51.420;5.682;2023-04-25T05:47:50;100973.41;;;7.79;81.74
64095;BME280;50353;51.420;5.682;2023-04-25T05:50:15;100969.34;;;7.91;81.91
64095;BME280;50353;51.420;5.682;2023-04-25T05:52:41;100975.97;;;8.36;79.05
64095;BME280;50353;51.420;5.682;2023-04-25T05:55:06;100975.06;;;8.18;79.74
64095;BME280;50353;51.420;5.682;2023-04-25T05:57:32;100976.69;;;8.40;78.08
64095;BME280;50353;51.420;5.682;2023-04-25T05:59:57;100988.03;;;8.59;76.14
64095;BME280;50353;51.420;5.682;2023-04-25T06:02:23;100987.50;;;8.88;75.22
64095;BME280;50353;51.420;5.682;2023-04-25T06:04:49;100984.09;;;8.86;75.84
64095;BME280;50353;51.420;5.682;2023-04-25T06:07:15;100992.06;;;8.67;76.27
64095;BME280;50353;51.420;5.682;2023-04-25T06:09:40;100994.84;;;8.46;75.74
64095;BME280;50353;51.420;5.682;2023-04-25T06:12:06;101009.50;;;8.69;76.26
64095;BME280;50353;51.420;5.682;2023-04-25T06:14:32;101004.06;;;8.55;76.16
64095;BME280;50353;51.420;5.682;2023-04-25T06:16:57;101005.84;;;8.54;76.33
64095;BME280;50353;51.420;5.682;2023-04-25T06:19:22;101010.03;;;8.39;76.01
64095;BME280;50353;51.420;5.682;2023-04-25T06:21:48;101006.16;;;8.29;75.87
64095;BME280;50353;51.420;5.682;2023-04-25T06:24:13;101011.47;;;8.46;76.45
64095;BME280;50353;51.420;5.682;2023-04-25T06:26:38;101002.06;;;8.95;73.76
64095;BME280;50353;51.420;5.682;2023-04-25T06:29:04;101008.19;;;8.78;74.35
64095;BME280;50353;51.420;5.682;2023-04-25T06:31:29;101010.59;;;8.83;73.51
64095;BME280;50353;51.420;5.682;2023-04-25T06:33:57;101011.97;;;8.55;73.83
64095;BME280;50353;51.420;5.682;2023-04-25T06:36:22;101014.41;;;8.94;73.85
64095;BME280;50353;51.420;5.682;2023-04-25T06:38:50;101013.78;;;9.07;72.69
64095;BME280;50353;51.420;5.682;2023-04-25T06:41:15;101018.34;;;8.86;73.51
64095;BME280;50353;51.420;5.682;2023-04-25T06:43:40;101015.47;;;8.55;72.95
64095;BME280;50353;51.420;5.682;2023-04-25T06:46:06;101019.72;;;9.28;72.67
64095;BME280;50353;51.420;5.682;2023-04-25T06:48:31;101022.31;;;9.63;70.45
64095;BME280;50353;51.420;5.682;2023-04-25T06:50:56;101028.97;;;9.70;69.54
64095;BME280;50353;51.420;5.682;2023-04-25T06:53:22;101037.63;;;9.56;69.71
64095;BME280;50353;51.420;5.682;2023-04-25T06:55:47;101031.72;;;9.18;69.28
64095;BME280;50353;51.420;5.682;2023-04-25T06:58:12;101039.28;;;9.24;68.16
64095;BME280;50353;51.420;5.682;2023-04-25T07:00:37;101044.56;;;9.41;69.26
64095;BME280;50353;51.420;5.682;2023-04-25T07:03:03;101045.66;;;9.20;68.97
64095;BME280;50353;51.420;5.682;2023-04-25T07:05:28;101040.38;;;9.37;68.60
64095;BME280;50353;51.420;5.682;2023-04-25T07:07:53;101043.47;;;9.95;67.04
64095;BME280;50353;51.420;5.682;2023-04-25T07:10:19;101040.88;;;9.77;65.16
64095;BME280;50353;51.420;5.682;2023-04-25T07:12:44;101046.09;;;9.95;65.68
64095;BME280;50353;51.420;5.682;2023-04-25T07:15:09;101051.41;;;11.05;62.93
64095;BME280;50353;51.420;5.682;2023-04-25T07:17:36;101053.47;;;11.74;59.89
64095;BME280;50353;51.420;5.682;2023-04-25T07:20:02;101050.66;;;11.77;59.97
64095;BME280;50353;51.420;5.682;2023-04-25T07:22:28;101049.06;;;12.17;59.13
64095;BME280;50353;51.420;5.682;2023-04-25T07:24:54;101053.38;;;11.90;57.71
64095;BME280;50353;51.420;5.682;2023-04-25T07:27:19;101060.41;;;12.05;58.62
64095;BME280;50353;51.420;5.682;2023-04-25T07:29:45;101055.09;;;12.20;57.52
64095;BME280;50353;51.420;5.682;2023-04-25T07:32:10;101067.50;;;12.19;57.63
64095;BME280;50353;51.420;5.682;2023-04-25T07:34:37;101071.00;;;11.91;57.42
64095;BME280;50353;51.420;5.682;2023-04-25T07:37:03;101061.94;;;12.09;56.84
64095;BME280;50353;51.420;5.682;2023-04-25T07:39:29;101050.97;;;12.70;57.05
64095;BME280;50353;51.420;5.682;2023-04-25T07:41:54;101057.84;;;12.60;56.05
64095;BME280;50353;51.420;5.682;2023-04-25T07:44:19;101064.31;;;12.96;54.53
64095;BME280;50353;51.420;5.682;2023-04-25T07:46:45;101072.59;;;13.44;55.39
64095;BME280;50353;51.420;5.682;2023-04-25T07:49:10;101077.06;;;12.07;55.18
64095;BME280;50353;51.420;5.682;2023-04-25T07:51:36;101075.75;;;12.42;55.60
64095;BME280;50353;51.420;5.682;2023-04-25T07:54:01;101081.16;;;12.40;55.79
64095;BME280;50353;51.420;5.682;2023-04-25T07:56:26;101091.44;;;11.74;56.56
64095;BME280;50353;51.420;5.682;2023-04-25T07:58:52;101093.03;;;11.91;55.86
64095;BME280;50353;51.420;5.682;2023-04-25T08:01:17;101083.03;;;12.52;56.54
64095;BME280;50353;51.420;5.682;2023-04-25T08:03:43;101090.56;;;13.13;54.75
64095;BME280;50353;51.420;5.682;2023-04-25T08:06:09;101092.72;;;13.34;52.57
64095;BME280;50353;51.420;5.682;2023-04-25T08:08:34;101091.72;;;13.88;52.77
64095;BME280;50353;51.420;5.682;2023-04-25T08:10:59;101107.53;;;14.02;50.16
64095;BME280;50353;51.420;5.682;2023-04-25T08:13:25;101104.50;;;13.30;50.32
64095;BME280;50353;51.420;5.682;2023-04-25T08:15:50;101101.78;;;12.91;50.66
64095;BME280;50353;51.420;5.682;2023-04-25T08:18:15;101098.31;;;12.76;52.25
64095;BME280;50353;51.420;5.682;2023-04-25T08:20:41;101121.72;;;12.28;54.97
64095;BME280;50353;51.420;5.682;2023-04-25T08:23:06;101119.78;;;12.59;53.19
64095;BME280;50353;51.420;5.682;2023-04-25T08:25:32;101125.75;;;12.48;51.97
64095;BME280;50353;51.420;5.682;2023-04-25T08:27:57;101123.69;;;12.39;53.12
64095;BME280;50353;51.420;5.682;2023-04-25T08:30:24;101128.91;;;12.82;51.61
64095;BME280;50353;51.420;5.682;2023-04-25T08:32:49;101130.91;;;12.37;52.79
64095;BME280;50353;51.420;5.682;2023-04-25T08:35:15;101134.81;;;13.13;49.95
64095;BME280;50353;51.420;5.682;2023-04-25T08:37:41;101142.94;;;11.99;50.73
64095;BME280;50353;51.420;5.682;2023-04-25T08:40:11;101142.59;;;11.60;51.60
64095;BME280;50353;51.420;5.682;2023-04-25T08:42:37;101147.09;;;11.58;52.51
64095;BME280;50353;51.420;5.682;2023-04-25T08:45:03;101145.28;;;11.59;51.81
64095;BME280;50353;51.420;5.682;2023-04-25T08:47:29;101141.09;;;11.40;52.87
64095;BME280;50353;51.420;5.682;2023-04-25T08:49:55;101150.28;;;11.79;52.80
64095;BME280;50353;51.420;5.682;2023-04-25T08:52:27;101153.66;;;11.81;54.16
64095;BME280;50353;51.420;5.682;2023-04-25T08:54:54;101161.03;;;11.62;54.22
64095;BME280;50353;51.420;5.682;2023-04-25T08:57:21;101162.50;;;12.25;52.65
64095;BME280;50353;51.420;5.682;2023-04-25T08:59:46;101159.59;;;12.86;52.37
64095;BME280;50353;51.420;5.682;2023-04-25T09:02:12;101162.38;;;13.25;50.62
64095;BME280;50353;51.420;5.682;2023-04-25T09:04:43;101171.94;;;12.73;50.13
64095;BME280;50353;51.420;5.682;2023-04-25T09:07:09;101180.69;;;12.17;48.91
64095;BME280;50353;51.420;5.682;2023-04-25T09:09:35;101191.97;;;12.21;52.10
64095;BME280;50353;51.420;5.682;2023-04-25T09:12:01;101188.09;;;11.81;53.71
64095;BME280;50353;51.420;5.682;2023-04-25T09:14:26;101201.00;;;11.88;51.53
64095;BME280;50353;51.420;5.682;2023-04-25T09:19:22;101202.81;;;11.57;53.41
64095;BME280;50353;51.420;5.682;2023-04-25T09:21:53;101208.22;;;11.23;54.97
64095;BME280;50353;51.420;5.682;2023-04-25T09:26:58;101199.91;;;12.21;55.80
64095;BME280;50353;51.420;5.682;2023-04-25T09:29:31;101211.25;;;12.23;55.13
64095;BME280;50353;51.420;5.682;2023-04-25T09:32:19;101208.53;;;11.79;57.04
64095;BME280;50353;51.420;5.682;2023-04-25T09:34:50;101211.03;;;11.36;58.93
64095;BME280;50353;51.420;5.682;2023-04-25T09:37:35;101199.69;;;13.36;53.85
64095;BME280;50353;51.420;5.682;2023-04-25T09:40:06;101206.59;;;13.79;50.10
64095;BME280;50353;51.420;5.682;2023-04-25T09:42:32;101205.28;;;14.75;48.76
64095;BME280;50353;51.420;5.682;2023-04-25T09:45:01;101212.97;;;13.76;49.91
64095;BME280;50353;51.420;5.682;2023-04-25T09:47:29;101229.16;;;13.18;48.89
64095;BME280;50353;51.420;5.682;2023-04-25T09:49:55;101228.13;;;13.34;50.46
64095;BME280;50353;51.420;5.682;2023-04-25T09:52:24;101224.03;;;12.02;52.86
64095;BME280;50353;51.420;5.682;2023-04-25T09:54:50;101228.59;;;12.57;52.86
64095;BME280;50353;51.420;5.682;2023-04-25T09:57:20;101232.94;;;12.87;51.66
64095;BME280;50353;51.420;5.682;2023-04-25T09:59:48;101224.16;;;13.81;49.99
64095;BME280;50353;51.420;5.682;2023-04-25T10:02:16;101234.38;;;14.52;48.78
64095;BME280;50353;51.420;5.682;2023-04-25T10:04:41;101224.78;;;13.85;50.91
64095;BME280;50353;51.420;5.682;2023-04-25T10:07:10;101231.00;;;13.04;49.85
64095;BME280;50353;51.420;5.682;2023-04-25T10:09:38;101247.81;;;12.17;52.22
64095;BME280;50353;51.420;5.682;2023-04-25T10:12:05;101254.22;;;13.42;48.64
64095;BME280;50353;51.420;5.682;2023-04-25T10:14:32;101251.50;;;14.74;48.65
64095;BME280;50353;51.420;5.682;2023-04-25T10:16:58;101256.88;;;13.69;50.92
64095;BME280;50353;51.420;5.682;2023-04-25T10:19:25;101264.34;;;12.07;54.71
64095;BME280;50353;51.420;5.682;2023-04-25T10:21:52;101263.44;;;13.36;54.05
64095;BME280;50353;51.420;5.682;2023-04-25T10:24:20;101253.50;;;14.06;52.63
64095;BME280;50353;51.420;5.682;2023-04-25T10:26:46;101253.09;;;14.12;49.67
64095;BME280;50353;51.420;5.682;2023-04-25T10:29:12;101249.81;;;14.34;51.65
64095;BME280;50353;51.420;5.682;2023-04-25T10:31:45;101250.31;;;13.33;51.92
64095;BME280;50353;51.420;5.682;2023-04-25T10:34:11;101252.91;;;12.93;50.85
64095;BME280;50353;51.420;5.682;2023-04-25T10:36:37;101259.72;;;12.82;52.53
64095;BME280;50353;51.420;5.682;2023-04-25T10:39:06;101271.34;;;13.09;53.13
64095;BME280;50353;51.420;5.682;2023-04-25T10:41:52;101260.81;;;13.22;48.80
64095;BME280;50353;51.420;5.682;2023-04-25T10:44:17;101264.47;;;14.65;46.40
64095;BME280;50353;51.420;5.682;2023-04-25T10:46:44;101260.00;;;14.14;47.83
64095;BME280;50353;51.420;5.682;2023-04-25T10:49:09;101251.41;;;14.75;44.65
64095;BME280;50353;51.420;5.682;2023-04-25T10:51:36;101251.25;;;14.90;43.01
64095;BME280;50353;51.420;5.682;2023-04-25T10:54:05;101255.53;;;14.15;37.54
64095;BME280;50353;51.420;5.682;2023-04-25T10:56:31;101244.44;;;15.23;41.68
64095;BME280;50353;51.420;5.682;2023-04-25T11:01:51;101244.09;;;15.27;40.03
64095;BME280;50353;51.420;5.682;2023-04-25T11:04:31;101238.75;;;14.66;41.26
64095;BME280;50353;51.420;5.682;2023-04-25T11:09:32;101233.78;;;15.23;41.72
64095;BME280;50353;51.420;5.682;2023-04-25T11:11:59;101241.91;;;14.71;41.23
64095;BME280;50353;51.420;5.682;2023-04-25T11:14:25;101241.72;;;15.11;44.58
64095;BME280;50353;51.420;5.682;2023-04-25T11:16:54;101243.69;;;14.96;41.47
64095;BME280;50353;51.420;5.682;2023-04-25T11:19:21;101239.75;;;14.89;41.79
64095;BME280;50353;51.420;5.682;2023-04-25T11:21:46;101240.28;;;15.67;41.87
64095;BME280;50353;51.420;5.682;2023-04-25T11:24:11;101246.25;;;15.46;41.77
64095;BME280;50353;51.420;5.682;2023-04-25T11:26:37;101243.69;;;15.20;45.08
64095;BME280;50353;51.420;5.682;2023-04-25T11:29:02;101245.81;;;14.91;45.36
64095;BME280;50353;51.420;5.682;2023-04-25T11:31:29;101253.94;;;14.12;43.56
64095;BME280;50353;51.420;5.682;2023-04-25T11:33:56;101271.38;;;14.16;45.73
64095;BME280;50353;51.420;5.682;2023-04-25T11:36:23;101270.00;;;13.16;46.98
64095;BME280;50353;51.420;5.682;2023-04-25T11:38:50;101280.38;;;12.92;50.48
64095;BME280;50353;51.420;5.682;2023-04-25T11:41:15;101281.31;;;12.18;56.84
64095;BME280;50353;51.420;5.682;2023-04-25T11:43:43;101286.06;;;12.28;53.03
64095;BME280;50353;51.420;5.682;2023-04-25T11:46:09;101288.69;;;12.13;53.69
64095;BME280;50353;51.420;5.682;2023-04-25T11:48:39;101295.66;;;11.54;58.23
64095;BME280;50353;51.420;5.682;2023-04-25T11:51:05;101296.59;;;11.53;56.88
64095;BME280;50353;51.420;5.682;2023-04-25T11:53:30;101290.06;;;12.49;56.28
64095;BME280;50353;51.420;5.682;2023-04-25T11:55:56;101300.28;;;12.70;53.66
64095;BME280;50353;51.420;5.682;2023-04-25T11:58:21;101298.38;;;12.87;53.83
64095;BME280;50353;51.420;5.682;2023-04-25T12:00:46;101300.47;;;12.96;54.69
64095;BME280;50353;51.420;5.682;2023-04-25T12:03:12;101305.28;;;12.46;56.85
64095;BME280;50353;51.420;5.682;2023-04-25T12:05:37;101304.88;;;11.93;59.65
64095;BME280;50353;51.420;5.682;2023-04-25T12:08:18;101310.63;;;12.60;55.71
64095;BME280;50353;51.420;5.682;2023-04-25T12:10:45;101308.91;;;12.45;54.75
64095;BME280;50353;51.420;5.682;2023-04-25T12:13:21;101309.66;;;12.02;56.41
64095;BME280;50353;51.420;5.682;2023-04-25T12:15:46;101310.97;;;12.40;56.74
64095;BME280;50353;51.420;5.682;2023-04-25T12:18:12;101313.25;;;12.31;57.60
64095;BME280;50353;51.420;5.682;2023-04-25T12:20:37;101322.09;;;12.75;55.11
64095;BME280;50353;51.420;5.682;2023-04-25T12:23:05;101316.16;;;12.27;56.42
64095;BME280;50353;51.420;5.682;2023-04-25T12:25:43;101312.16;;;12.79;54.14
64095;BME280;50353;51.420;5.682;2023-04-25T12:33:20;101312.75;;;13.26;51.10
64095;BME280;50353;51.420;5.682;2023-04-25T12:35:45;101304.88;;;14.06;50.29
64095;BME280;50353;51.420;5.682;2023-04-25T12:38:11;101305.41;;;13.71;48.46
64095;BME280;50353;51.420;5.682;2023-04-25T12:40:36;101302.94;;;15.11;45.80
64095;BME280;50353;51.420;5.682;2023-04-25T12:43:01;101302.66;;;14.26;46.91
64095;BME280;50353;51.420;5.682;2023-04-25T12:45:27;101303.19;;;14.95;47.93
64095;BME280;50353;51.420;5.682;2023-04-25T12:47:52;101301.81;;;14.90;44.95
64095;BME280;50353;51.420;5.682;2023-04-25T12:50:17;101296.97;;;15.20;43.97
64095;BME280;50353;51.420;5.682;2023-04-25T12:52:42;101301.69;;;14.01;44.98
64095;BME280;50353;51.420;5.682;2023-04-25T12:55:08;101299.38;;;14.48;46.10
64095;BME280;50353;51.420;5.682;2023-04-25T12:57:33;101314.44;;;13.68;45.88
64095;BME280;50353;51.420;5.682;2023-04-25T12:59:58;101309.66;;;13.61;47.21
64095;BME280;50353;51.420;5.682;2023-04-25T13:02:24;101304.38;;;15.28;45.50
64095;BME280;50353;51.420;5.682;2023-04-25T13:04:50;101310.13;;;15.35;42.48